Home   Weather   Belarus   Minsk   Past weeks
Flag for Belarus

Past Weather in Minsk, Belarus — Yesterday and Last 2 Weeks

Currently: 64 °F. Sprinkles. Scattered clouds. (Weather station: Minsk, Belarus). See more current weather

Past Weather in Minsk — Graph

°F

Minsk Temperature Yesterday

Maximum temperature yesterday: 70 °F (at 12:30 pm)
Minimum temperature yesterday: 52 °F (at 5:30 am)
Average temperature yesterday: 63 °F

High & Low Weather Summary for the Past Weeks

 TemperatureHumidityPressure
High84 °F (Aug 5, 2:00 pm)100% (Jul 27, 1:30 am)30.27 "Hg (Jul 27, 1:30 am)
Low46 °F (Jul 30, 5:30 am)41% (Aug 8, 1:30 pm)29.80 "Hg (Jul 27, 5:00 am)
Average66 °F77%30.06 "Hg
* Reported Jul 26 2:00 pm — Aug 10 2:00 pm, Minsk. Weather by CustomWeather, © 2022

Note: Actual official high and low records may vary slightly from our data, if they occured in-between our weather recording intervals... More about our weather records

Minsk Weather History for the Previous 24 Hours

Scroll right to see more
 ConditionsComfort  
Time TempWeatherWind HumidityBarometerVisibility
2:00 pm
Wed, Aug 10
72 °FPartly sunny.6 mph50%30.24 "HgN/A
1:00 pm70 °FPartly sunny.10 mph57%30.27 "HgN/A
12:30 pm70 °FPartly sunny.10 mph60%30.27 "HgN/A
12:00 pm72 °FPartly sunny.10 mph57%30.27 "HgN/A
11:30 am70 °FPartly sunny.13 mph57%30.27 "HgN/A
11:00 am70 °FPartly sunny.13 mph64%30.27 "HgN/A
10:00 am68 °FPartly sunny.13 mph69%30.27 "HgN/A
9:00 am64 °FSunny.8 mph78%30.27 "Hg10 mi
8:30 am63 °FSunny.8 mph83%30.27 "Hg10 mi
8:00 am61 °FSunny.8 mph88%30.27 "Hg10 mi
7:30 am61 °FPassing clouds.6 mph88%30.27 "HgN/A
6:30 am57 °FClear.6 mph94%30.27 "Hg10 mi
6:00 am55 °FClear.6 mph100%30.27 "Hg10 mi
5:30 am57 °FClear.3 mph94%30.27 "Hg10 mi
5:00 am57 °FClear.6 mph94%30.24 "Hg10 mi
4:30 am57 °FClear.6 mph94%30.24 "Hg10 mi
4:00 am59 °FClear.6 mph94%30.27 "Hg10 mi
2:30 am61 °FClear.6 mph88%30.27 "Hg10 mi
2:00 am61 °FClear.6 mph88%30.24 "Hg10 mi
1:00 am61 °FClear.6 mph88%30.27 "Hg10 mi
12:00 am61 °FClear.3 mph88%30.27 "Hg10 mi
11:00 pm
Tue, Aug 9
63 °FClear.6 mph83%30.27 "Hg10 mi
10:30 pm63 °FClear.8 mph83%30.27 "Hg10 mi
10:00 pm64 °FClear.6 mph78%30.27 "Hg10 mi
9:30 pm64 °FSunny.3 mph78%30.27 "Hg10 mi
9:00 pm64 °FSunny.8 mph73%30.27 "Hg10 mi
8:00 pm66 °FSunny.10 mph68%30.24 "Hg10 mi
7:00 pm68 °FSunny.6 mph64%30.24 "Hg10 mi
6:30 pm68 °FSunny.8 mph64%30.24 "Hg10 mi
6:00 pm68 °FPassing clouds.10 mph64%30.24 "HgN/A
5:00 pm70 °FScattered clouds.8 mph60%30.24 "HgN/A
4:30 pm70 °FScattered clouds.8 mph57%30.24 "HgN/A
4:00 pm70 °FScattered clouds.8 mph57%30.27 "HgN/A
3:30 pm70 °FScattered clouds.8 mph57%30.27 "HgN/A
3:00 pm70 °FScattered clouds.10 mph57%30.27 "HgN/A
Weather by CustomWeather, © 2022

See weather overview